createdAt,value
2023-01-10T00:00:05.617Z,94159.19
2023-01-10T00:02:32.014Z,94154.51
2023-01-10T00:04:58.346Z,94137.77
2023-01-10T00:07:24.719Z,94150.80
2023-01-10T00:09:51.087Z,94143.33
2023-01-10T00:12:17.459Z,94141.30
2023-01-10T00:14:43.822Z,94128.43
2023-01-10T00:17:10.189Z,94122.50
2023-01-10T00:19:36.535Z,94109.75
2023-01-10T00:22:02.929Z,94108.81
2023-01-10T00:24:29.298Z,94107.84
2023-01-10T00:26:55.696Z,94125.73
2023-01-10T00:29:22.080Z,94133.45
2023-01-10T00:31:48.454Z,94119.11
2023-01-10T00:34:14.801Z,94146.14
2023-01-10T00:36:41.198Z,94138.54
2023-01-10T00:39:07.530Z,94130.69
2023-01-10T00:41:33.926Z,94112.67
2023-01-10T00:44:00.276Z,94112.20
2023-01-10T00:46:26.703Z,94110.03
2023-01-10T00:48:53.024Z,94116.81
2023-01-10T00:51:19.388Z,94092.95
2023-01-10T00:53:45.723Z,94100.67
2023-01-10T00:56:12.122Z,94100.36
2023-01-10T00:58:38.467Z,94104.53
2023-01-10T01:01:04.911Z,94111.78
2023-01-10T01:03:31.191Z,94095.87
2023-01-10T01:05:57.579Z,94081.37
2023-01-10T01:08:24.009Z,94093.77
2023-01-10T01:10:50.386Z,94091.06
2023-01-10T01:13:16.728Z,94081.52
2023-01-10T01:15:43.163Z,94076.22
2023-01-10T01:18:09.472Z,94081.99
2023-01-10T01:20:35.909Z,94082.34
2023-01-10T01:23:02.239Z,94089.71
2023-01-10T01:25:28.607Z,94077.19
2023-01-10T01:27:54.959Z,94082.11
2023-01-10T01:30:21.351Z,94091.94
2023-01-10T01:32:47.673Z,94095.20
2023-01-10T01:35:14.067Z,94108.08
2023-01-10T01:37:40.430Z,94107.73
2023-01-10T01:40:06.814Z,94109.14
2023-01-10T01:42:33.158Z,94095.80
2023-01-10T01:44:59.551Z,94079.22
2023-01-10T01:47:25.927Z,94076.97
2023-01-10T01:49:52.330Z,94070.63
2023-01-10T01:52:18.675Z,94085.78
2023-01-10T01:54:45.094Z,94089.30
2023-01-10T01:57:11.441Z,94077.25
2023-01-10T01:59:37.856Z,94078.69
2023-01-10T02:02:04.301Z,94064.53
2023-01-10T02:04:30.595Z,94062.55
2023-01-10T02:06:56.928Z,94055.65
2023-01-10T02:09:23.314Z,94061.33
2023-01-10T02:11:49.665Z,94058.56
2023-01-10T02:14:16.049Z,94048.74
2023-01-10T02:16:42.401Z,94034.94
2023-01-10T02:19:08.776Z,94020.77
2023-01-10T02:21:35.113Z,94011.89
2023-01-10T02:24:01.506Z,94011.58
2023-01-10T02:26:27.850Z,94026.33
2023-01-10T02:28:54.239Z,94031.20
2023-01-10T02:31:20.639Z,94026.86
2023-01-10T02:33:46.969Z,94017.86
2023-01-10T02:36:13.319Z,94011.08
2023-01-10T02:38:39.707Z,94001.75
2023-01-10T02:41:06.077Z,93994.03
2023-01-10T02:43:32.441Z,93997.55
2023-01-10T02:45:58.790Z,94012.98
2023-01-10T02:48:25.207Z,94014.47
2023-01-10T02:50:51.555Z,94013.65
2023-01-10T02:53:17.938Z,94002.06
2023-01-10T02:55:44.310Z,94027.27
2023-01-10T02:58:10.704Z,94012.05
2023-01-10T03:00:37.046Z,94015.22
2023-01-10T03:03:03.438Z,94022.81
2023-01-10T03:05:29.773Z,94010.23
2023-01-10T03:07:56.212Z,94022.00
2023-01-10T03:10:22.575Z,94026.36
2023-01-10T03:12:51.145Z,94007.97
2023-01-10T03:15:17.486Z,94003.55
2023-01-10T03:17:43.872Z,94009.06
2023-01-10T03:20:10.224Z,94008.31
2023-01-10T03:22:36.637Z,94030.66
2023-01-10T03:25:02.968Z,94028.44
2023-01-10T03:27:29.391Z,94017.48
2023-01-10T03:29:55.748Z,94029.19
2023-01-10T03:32:22.167Z,94040.48
2023-01-10T03:34:48.497Z,94044.69
2023-01-10T03:37:14.879Z,94041.64
2023-01-10T03:39:41.215Z,94031.48
2023-01-10T03:42:07.601Z,94020.37
2023-01-10T03:44:33.949Z,94030.38
2023-01-10T03:47:00.334Z,94040.55
2023-01-10T03:49:26.696Z,94046.17
2023-01-10T03:51:53.071Z,94041.17
2023-01-10T03:54:19.441Z,94033.45
2023-01-10T03:56:45.829Z,94043.06
2023-01-10T03:59:15.263Z,94038.45
2023-01-10T04:01:41.705Z,94029.72
2023-01-10T04:04:08.003Z,94026.52
2023-01-10T04:06:36.438Z,94019.30
2023-01-10T04:09:00.772Z,93997.55
2023-01-10T04:11:27.155Z,93976.61
2023-01-10T04:13:53.501Z,93961.64
2023-01-10T04:16:19.947Z,93960.36
2023-01-10T04:18:46.243Z,93961.17
2023-01-10T04:21:12.640Z,93960.86
2023-01-10T04:23:38.984Z,93972.56
2023-01-10T04:26:05.379Z,93964.56
2023-01-10T04:28:31.730Z,93968.08
2023-01-10T04:30:58.120Z,93998.95
2023-01-10T04:33:24.458Z,94027.14
2023-01-10T04:35:50.844Z,94039.89
2023-01-10T04:38:17.183Z,94050.19
2023-01-10T04:40:43.580Z,94044.53
2023-01-10T04:43:09.923Z,94046.64
2023-01-10T04:45:36.460Z,94043.59
2023-01-10T04:48:02.670Z,94039.89
2023-01-10T04:50:29.065Z,94045.70
2023-01-10T04:52:55.392Z,94036.88
2023-01-10T04:55:21.772Z,94036.75
2023-01-10T04:57:48.118Z,94027.23
2023-01-10T05:00:14.500Z,94017.77
2023-01-10T05:02:40.965Z,94013.30
2023-01-10T05:05:08.575Z,94024.41
2023-01-10T05:07:33.586Z,94019.27
2023-01-10T05:09:59.972Z,94005.42
2023-01-10T05:12:26.319Z,94002.72
2023-01-10T05:14:52.720Z,93985.02
2023-01-10T05:17:19.070Z,93991.67
2023-01-10T05:19:45.488Z,93978.04
2023-01-10T05:22:11.796Z,93964.37
2023-01-10T05:24:38.197Z,93971.50
2023-01-10T05:27:04.546Z,93981.17
2023-01-10T05:29:30.925Z,93982.28
2023-01-10T05:31:57.365Z,93988.72
2023-01-10T05:34:23.731Z,93990.48
2023-01-10T05:36:50.065Z,93994.69
2023-01-10T05:39:16.456Z,94009.32
2023-01-10T05:41:42.806Z,93998.44
2023-01-10T05:44:09.199Z,94001.26
2023-01-10T05:46:35.549Z,94012.50
2023-01-10T05:49:01.930Z,94016.42
2023-01-10T05:51:28.279Z,94015.03
2023-01-10T05:53:54.653Z,94002.02
2023-01-10T05:56:20.999Z,93989.72
2023-01-10T05:58:51.380Z,93989.19
2023-01-10T06:01:13.798Z,93998.23
2023-01-10T06:03:40.122Z,94004.86
2023-01-10T06:06:06.470Z,94001.99
2023-01-10T06:08:32.873Z,94006.22
2023-01-10T06:11:00.341Z,94004.51
2023-01-10T06:13:25.601Z,94007.27
2023-01-10T06:15:52.008Z,94007.09
2023-01-10T06:18:18.335Z,94008.43
2023-01-10T06:20:44.715Z,94018.10
2023-01-10T06:23:11.170Z,94010.20
2023-01-10T06:25:37.516Z,94014.28
2023-01-10T06:28:03.942Z,94014.59
2023-01-10T06:30:30.264Z,94012.54
2023-01-10T06:32:56.638Z,94007.30
2023-01-10T06:35:22.987Z,94009.94
2023-01-10T06:37:49.369Z,94005.42
2023-01-10T06:40:15.759Z,94012.74
2023-01-10T06:42:42.718Z,94011.02
2023-01-10T06:45:09.071Z,94008.97
2023-01-10T06:47:35.567Z,94007.67
2023-01-10T06:50:01.974Z,94002.23
2023-01-10T06:52:28.357Z,94005.48
2023-01-10T06:54:54.703Z,94006.98
2023-01-10T06:57:21.098Z,93999.59
2023-01-10T06:59:47.445Z,93982.95
2023-01-10T07:02:14.947Z,93993.83
2023-01-10T07:04:41.232Z,93995.73
2023-01-10T07:07:07.623Z,93989.66
2023-01-10T07:09:33.960Z,93993.19
2023-01-10T07:12:00.352Z,93985.66
2023-01-10T07:14:26.694Z,93988.75
2023-01-10T07:16:53.129Z,93996.36
2023-01-10T07:19:19.468Z,93986.31
2023-01-10T07:21:45.866Z,93961.72
2023-01-10T07:24:12.222Z,93987.02
2023-01-10T07:26:38.611Z,93986.12
2023-01-10T07:29:04.965Z,93988.05
2023-01-10T07:31:31.369Z,93980.95
2023-01-10T07:33:57.700Z,93982.59
2023-01-10T07:36:24.082Z,93975.19
2023-01-10T07:38:50.430Z,93980.05
2023-01-10T07:41:16.824Z,93982.28
2023-01-10T07:43:43.188Z,93978.48
2023-01-10T07:46:09.763Z,93948.70
2023-01-10T07:48:35.974Z,93967.84
2023-01-10T07:51:02.351Z,93953.67
2023-01-10T07:53:28.696Z,93955.55
2023-01-10T07:55:55.079Z,93965.23
2023-01-10T07:58:21.429Z,93965.23
2023-01-10T08:00:47.855Z,93961.36
2023-01-10T08:03:14.325Z,93956.56
2023-01-10T08:05:40.573Z,93959.48
2023-01-10T08:08:06.997Z,93958.84
2023-01-10T08:10:33.351Z,93959.98
2023-01-10T08:13:13.246Z,93952.49
2023-01-10T08:15:26.145Z,93956.39
2023-01-10T08:17:52.515Z,93953.17
2023-01-10T08:20:18.886Z,93944.24
2023-01-10T08:22:45.264Z,93947.69
2023-01-10T08:25:11.634Z,93946.55
2023-01-10T08:27:38.043Z,93946.55
2023-01-10T08:30:04.384Z,93943.34
2023-01-10T08:32:30.804Z,93916.53
2023-01-10T08:34:57.146Z,93926.55
2023-01-10T08:37:23.543Z,93928.97
2023-01-10T08:39:49.878Z,93915.00
2023-01-10T08:42:16.280Z,93915.00
2023-01-10T08:44:42.667Z,93891.31
2023-01-10T08:47:09.047Z,93891.31
2023-01-10T08:49:35.411Z,93899.24
2023-01-10T08:52:01.812Z,93880.67
2023-01-10T08:54:28.182Z,93897.83
2023-01-10T08:56:54.579Z,93897.83
2023-01-10T08:59:21.054Z,93868.61
2023-01-10T09:01:47.542Z,93870.23
2023-01-10T09:04:13.837Z,93879.61
2023-01-10T09:06:40.227Z,93879.59
2023-01-10T09:09:06.570Z,93888.14
2023-01-10T09:11:32.969Z,93888.18
2023-01-10T09:13:59.425Z,93870.73
2023-01-10T09:16:25.899Z,93865.89
2023-01-10T09:18:52.280Z,93886.09
2023-01-10T09:21:18.685Z,93866.05
2023-01-10T09:23:45.018Z,93868.62
2023-01-10T09:26:11.421Z,93861.38
2023-01-10T09:28:37.759Z,93860.72
2023-01-10T09:31:04.200Z,93871.05
2023-01-10T09:33:45.220Z,93871.05
2023-01-10T09:35:56.885Z,93868.98
2023-01-10T09:38:23.249Z,93868.33
2023-01-10T09:40:49.623Z,93865.11
2023-01-10T09:43:15.974Z,93851.20
2023-01-10T09:45:42.373Z,93842.16
2023-01-10T09:48:08.732Z,93839.27
2023-01-10T09:50:35.138Z,93816.48
2023-01-10T09:53:01.487Z,93834.89
2023-01-10T09:55:27.909Z,93834.89
2023-01-10T09:57:54.237Z,93831.34
2023-01-10T10:00:20.668Z,93831.34
2023-01-10T10:02:49.033Z,93826.34
2023-01-10T10:05:13.448Z,93818.91
2023-01-10T10:07:39.795Z,93826.00
2023-01-10T10:10:06.212Z,93800.47
2023-01-10T10:12:32.584Z,93790.46
2023-01-10T10:14:59.028Z,93790.46
2023-01-10T10:17:25.385Z,93819.55
2023-01-10T10:19:51.791Z,93820.83
2023-01-10T10:22:19.895Z,93802.09
2023-01-10T10:24:44.518Z,93802.09
2023-01-10T10:27:10.869Z,93814.38
2023-01-10T10:29:37.296Z,93813.75
2023-01-10T10:32:03.637Z,93809.38
2023-01-10T10:34:30.035Z,93807.58
2023-01-10T10:36:56.394Z,93792.44
2023-01-10T10:39:22.792Z,93787.92
2023-01-10T10:41:49.209Z,93788.23
2023-01-10T10:44:15.588Z,93793.27
2023-01-10T10:46:41.945Z,93776.30
2023-01-10T10:49:08.318Z,93790.50
2023-01-10T10:51:34.794Z,93781.78
2023-01-10T10:54:01.118Z,93777.74
2023-01-10T10:56:27.470Z,93774.84
2023-01-10T10:58:53.848Z,93779.69
2023-01-10T11:01:20.296Z,93780.48
2023-01-10T11:03:46.579Z,93787.27
2023-01-10T11:06:12.924Z,93769.18
2023-01-10T11:08:39.308Z,93769.18
2023-01-10T11:11:05.706Z,93765.64
2023-01-10T11:13:32.102Z,93756.42
2023-01-10T11:15:58.514Z,93732.70
2023-01-10T11:18:24.834Z,93758.55
2023-01-10T11:20:51.202Z,93765.31
2023-01-10T11:23:17.600Z,93765.31
2023-01-10T11:25:43.943Z,93757.08
2023-01-10T11:28:11.156Z,93753.34
2023-01-10T11:30:36.711Z,93756.27
2023-01-10T11:33:03.115Z,93760.64
2023-01-10T11:35:29.427Z,93759.34
2023-01-10T11:37:55.822Z,93761.11
2023-01-10T11:40:22.178Z,93759.16
2023-01-10T11:42:48.557Z,93758.86
2023-01-10T11:45:15.019Z,93740.95
2023-01-10T11:47:45.319Z,93740.95
2023-01-10T11:50:07.737Z,93758.69
2023-01-10T11:52:34.182Z,93755.45
2023-01-10T11:55:00.636Z,93754.97
2023-01-10T11:57:27.023Z,93756.12
2023-01-10T11:59:53.367Z,93731.56
2023-01-10T12:02:19.792Z,93751.27
2023-01-10T12:04:46.101Z,93746.44
2023-01-10T12:07:12.511Z,93746.27
2023-01-10T12:09:38.843Z,93743.03
2023-01-10T12:12:05.243Z,93736.41
2023-01-10T12:14:31.589Z,93738.81
2023-01-10T12:17:00.519Z,93743.03
2023-01-10T12:19:26.772Z,93745.77
2023-01-10T12:21:53.189Z,93721.90
2023-01-10T12:24:19.534Z,93745.77
2023-01-10T12:26:45.928Z,93752.72
2023-01-10T12:29:12.286Z,93755.62
2023-01-10T12:31:38.656Z,93746.58
2023-01-10T12:34:05.016Z,93764.63
2023-01-10T12:36:31.408Z,93749.02
2023-01-10T12:38:57.756Z,93749.02
2023-01-10T12:41:24.152Z,93747.39
2023-01-10T12:43:50.499Z,93732.54
2023-01-10T12:46:31.713Z,93722.86
2023-01-10T12:48:43.263Z,93722.86
2023-01-10T12:51:09.672Z,93739.96
2023-01-10T12:53:36.031Z,93738.34
2023-01-10T12:56:02.435Z,93743.94
2023-01-10T12:58:28.793Z,93761.09
2023-01-10T13:00:55.215Z,93761.09
2023-01-10T13:03:21.553Z,93764.14
2023-01-10T13:05:47.956Z,93760.64
2023-01-10T13:08:14.307Z,93760.64
2023-01-10T13:10:40.691Z,93761.59
2023-01-10T13:13:07.045Z,93758.50
2023-01-10T13:15:33.519Z,93749.64
2023-01-10T13:17:59.797Z,93754.81
2023-01-10T13:20:26.187Z,93760.14
2023-01-10T13:22:52.516Z,93754.90
2023-01-10T13:25:18.906Z,93763.77
2023-01-10T13:27:45.242Z,93763.77
2023-01-10T13:30:11.624Z,93769.59
2023-01-10T13:32:40.162Z,93772.66
2023-01-10T13:35:06.551Z,93772.66
2023-01-10T13:37:32.903Z,93756.17
2023-01-10T13:39:59.331Z,93769.89
2023-01-10T13:42:25.670Z,93762.62
2023-01-10T13:44:52.068Z,93762.33
2023-01-10T13:47:18.454Z,93752.92
2023-01-10T13:49:44.838Z,93746.17
2023-01-10T13:52:11.180Z,93764.23
2023-01-10T13:54:37.577Z,93764.23
2023-01-10T13:57:03.925Z,93782.01
2023-01-10T13:59:30.344Z,93781.50
2023-01-10T14:01:56.823Z,93778.75
2023-01-10T14:04:23.129Z,93778.75
2023-01-10T14:06:49.453Z,93786.48
2023-01-10T14:09:15.849Z,93786.48
2023-01-10T14:11:42.233Z,93779.97
2023-01-10T14:14:08.614Z,93779.97
2023-01-10T14:16:34.953Z,93776.44
2023-01-10T14:19:01.348Z,93759.50
2023-01-10T14:21:27.684Z,93781.97
2023-01-10T14:23:54.140Z,93781.97
2023-01-10T14:26:20.507Z,93797.12
2023-01-10T14:28:46.892Z,93776.10
2023-01-10T14:31:13.293Z,93786.31
2023-01-10T14:33:39.634Z,93783.55
2023-01-10T14:36:05.986Z,93781.95
2023-01-10T14:38:32.374Z,93778.52
2023-01-10T14:40:58.723Z,93762.69
2023-01-10T14:43:25.196Z,93786.75
2023-01-10T14:45:51.524Z,93786.75
2023-01-10T14:48:17.926Z,93787.25
2023-01-10T14:50:44.260Z,93794.98
2023-01-10T14:53:10.671Z,93786.94
2023-01-10T14:55:37.059Z,93799.06
2023-01-10T14:58:03.439Z,93799.06
2023-01-10T15:00:29.819Z,93806.78
2023-01-10T15:02:56.185Z,93807.09
2023-01-10T15:05:22.531Z,93822.91
2023-01-10T15:07:50.639Z,93809.34
2023-01-10T15:10:15.259Z,93809.34
2023-01-10T15:12:41.664Z,93798.17
2023-01-10T15:15:08.041Z,93821.77
2023-01-10T15:17:34.408Z,93829.01
2023-01-10T15:20:00.756Z,93829.01
2023-01-10T15:22:27.145Z,93824.18
2023-01-10T15:24:53.531Z,93837.88
2023-01-10T15:27:19.915Z,93837.88
2023-01-10T15:29:46.269Z,93832.86
2023-01-10T15:32:12.845Z,93831.40
2023-01-10T15:34:39.180Z,93831.40
2023-01-10T15:37:05.567Z,93850.38
2023-01-10T15:39:31.944Z,93854.12
2023-01-10T15:41:58.350Z,93844.24
2023-01-10T15:44:25.759Z,93844.24
2023-01-10T15:46:51.188Z,93876.44
2023-01-10T15:49:17.434Z,93876.44
2023-01-10T15:51:43.851Z,93877.36
2023-01-10T15:54:10.190Z,93877.36
2023-01-10T15:56:36.589Z,93877.36
2023-01-10T15:59:03.192Z,93886.26
2023-01-10T16:01:29.675Z,93894.47
2023-01-10T16:03:55.884Z,93886.40
2023-01-10T16:06:22.279Z,93898.31
2023-01-10T16:08:48.619Z,93908.12
2023-01-10T16:11:15.051Z,93908.94
2023-01-10T16:13:41.413Z,93915.73
2023-01-10T16:16:07.869Z,93907.82
2023-01-10T16:18:34.204Z,93920.79
2023-01-10T16:21:00.622Z,93921.50
2023-01-10T16:23:26.998Z,93921.50
2023-01-10T16:25:53.403Z,93937.25
2023-01-10T16:28:19.723Z,93944.55
2023-01-10T16:30:46.119Z,93948.29
2023-01-10T16:33:12.520Z,93954.73
2023-01-10T16:35:38.900Z,93958.91
2023-01-10T16:38:05.259Z,93963.22
2023-01-10T16:40:31.639Z,93972.42
2023-01-10T16:42:57.981Z,93973.36
2023-01-10T16:45:24.473Z,93974.14
2023-01-10T16:47:50.709Z,93972.00
2023-01-10T16:50:17.094Z,93969.63
2023-01-10T16:52:43.437Z,93971.27
2023-01-10T16:55:09.834Z,93981.02
2023-01-10T16:57:36.249Z,93976.14
2023-01-10T17:00:02.666Z,93963.84
2023-01-10T17:02:29.012Z,93978.45
2023-01-10T17:04:55.398Z,93983.40
2023-01-10T17:07:21.758Z,93987.00
2023-01-10T17:09:49.404Z,93994.91
2023-01-10T17:12:14.508Z,93996.46
2023-01-10T17:14:40.947Z,93993.92
2023-01-10T17:17:07.302Z,93999.00
2023-01-10T17:19:33.688Z,94004.11
2023-01-10T17:22:00.031Z,94004.75
2023-01-10T17:24:26.428Z,94007.33
2023-01-10T17:26:52.784Z,94011.03
2023-01-10T17:29:19.164Z,94007.59
2023-01-10T17:31:45.534Z,94005.94
2023-01-10T17:34:11.906Z,94011.63
2023-01-10T17:36:38.229Z,94014.08
2023-01-10T17:39:04.662Z,94018.42
2023-01-10T17:41:30.993Z,94012.86
2023-01-10T17:43:57.384Z,94012.86
2023-01-10T17:46:23.753Z,94030.06
2023-01-10T17:48:50.123Z,94033.12
2023-01-10T17:51:16.465Z,94033.80
2023-01-10T17:53:42.851Z,94033.91
2023-01-10T17:56:09.206Z,94038.77
2023-01-10T17:58:35.598Z,94040.92
2023-01-10T18:01:02.069Z,94038.69
2023-01-10T18:03:28.336Z,94036.61
2023-01-10T18:05:54.714Z,94032.87
2023-01-10T18:08:21.088Z,94035.73
2023-01-10T18:10:47.432Z,94034.45
2023-01-10T18:13:13.811Z,94038.48
2023-01-10T18:15:40.206Z,94039.13
2023-01-10T18:18:06.590Z,94038.94
2023-01-10T18:20:32.934Z,94036.24
2023-01-10T18:22:59.320Z,94035.59
2023-01-10T18:25:25.706Z,94040.06
2023-01-10T18:27:52.011Z,94038.13
2023-01-10T18:30:18.415Z,94037.94
2023-01-10T18:32:44.796Z,94036.44
2023-01-10T18:35:11.193Z,94041.28
2023-01-10T18:37:37.542Z,94032.87
2023-01-10T18:40:03.947Z,94037.08
2023-01-10T18:42:30.284Z,94036.73
2023-01-10T18:44:56.674Z,94040.47
2023-01-10T18:47:23.020Z,94040.77
2023-01-10T18:49:49.518Z,94041.23
2023-01-10T18:52:15.760Z,94035.73
2023-01-10T18:54:42.149Z,94032.98
2023-01-10T18:57:08.497Z,94041.11
2023-01-10T18:59:34.883Z,94047.05
2023-01-10T19:02:01.233Z,94054.36
2023-01-10T19:04:27.620Z,94058.81
2023-01-10T19:06:56.663Z,94059.69
2023-01-10T19:09:20.348Z,94059.09
2023-01-10T19:11:46.684Z,94060.70
2023-01-10T19:14:13.078Z,94068.12
2023-01-10T19:16:39.432Z,94073.41
2023-01-10T19:19:05.871Z,94079.20
2023-01-10T19:21:32.211Z,94076.95
2023-01-10T19:23:58.597Z,94069.59
2023-01-10T19:26:24.947Z,94074.46
2023-01-10T19:28:51.336Z,94079.30
2023-01-10T19:31:17.725Z,94074.80
2023-01-10T19:33:44.078Z,94084.45
2023-01-10T19:36:10.418Z,94085.06
2023-01-10T19:38:36.820Z,94083.93
2023-01-10T19:41:03.161Z,94087.45
2023-01-10T19:43:29.600Z,94088.40
2023-01-10T19:45:56.066Z,94089.03
2023-01-10T19:48:22.357Z,94090.61
2023-01-10T19:50:51.175Z,94095.41
2023-01-10T19:53:17.566Z,94097.99
2023-01-10T19:55:45.365Z,94106.58
2023-01-10T19:58:10.643Z,94107.64
2023-01-10T20:00:36.987Z,94108.93
2023-01-10T20:03:03.440Z,94117.61
2023-01-10T20:05:29.761Z,94116.95
2023-01-10T20:07:56.119Z,94114.69
2023-01-10T20:10:24.927Z,94116.47
2023-01-10T20:12:51.312Z,94116.13
2023-01-10T20:15:17.670Z,94124.27
2023-01-10T20:17:44.041Z,94129.67
2023-01-10T20:20:10.384Z,94127.26
2023-01-10T20:22:36.766Z,94127.73
2023-01-10T20:25:03.115Z,94134.52
2023-01-10T20:27:29.536Z,94136.40
2023-01-10T20:29:55.873Z,94133.01
2023-01-10T20:32:22.360Z,94138.63
2023-01-10T20:34:48.708Z,94139.92
2023-01-10T20:37:15.091Z,94144.28
2023-01-10T20:39:41.433Z,94141.65
2023-01-10T20:42:07.826Z,94148.15
2023-01-10T20:44:34.176Z,94152.30
2023-01-10T20:47:00.556Z,94159.40
2023-01-10T20:49:26.938Z,94165.70
2023-01-10T20:51:53.319Z,94162.59
2023-01-10T20:54:19.689Z,94170.45
2023-01-10T20:56:46.086Z,94169.83
2023-01-10T20:59:12.413Z,94176.42
2023-01-10T21:01:38.852Z,94179.13
2023-01-10T21:04:05.179Z,94186.06
2023-01-10T21:06:31.602Z,94188.58
2023-01-10T21:08:57.898Z,94189.11
2023-01-10T21:11:24.285Z,94188.38
2023-01-10T21:13:50.629Z,94196.62
2023-01-10T21:16:17.049Z,94196.36
2023-01-10T21:18:43.354Z,94200.56
2023-01-10T21:21:09.738Z,94198.53
2023-01-10T21:23:36.107Z,94207.70
2023-01-10T21:26:02.499Z,94200.84
2023-01-10T21:28:28.837Z,94213.32
2023-01-10T21:30:55.222Z,94214.81
2023-01-10T21:33:21.564Z,94211.14
2023-01-10T21:35:47.947Z,94214.73
2023-01-10T21:38:14.342Z,94212.03
2023-01-10T21:40:40.732Z,94223.20
2023-01-10T21:43:07.073Z,94216.49
2023-01-10T21:45:33.456Z,94222.11
2023-01-10T21:47:59.815Z,94217.59
2023-01-10T21:50:26.189Z,94223.22
2023-01-10T21:52:52.535Z,94223.96
2023-01-10T21:55:18.920Z,94223.14
2023-01-10T21:57:46.950Z,94230.08
2023-01-10T22:00:11.692Z,94232.31
2023-01-10T22:02:38.029Z,94236.30
2023-01-10T22:05:04.452Z,94235.83
2023-01-10T22:07:30.799Z,94238.87
2023-01-10T22:09:57.169Z,94239.49
2023-01-10T22:12:23.517Z,94243.98
2023-01-10T22:14:49.904Z,94243.70
2023-01-10T22:17:16.253Z,94242.53
2023-01-10T22:19:42.633Z,94244.91
2023-01-10T22:22:08.978Z,94253.80
2023-01-10T22:24:35.367Z,94256.84
2023-01-10T22:27:01.751Z,94258.61
2023-01-10T22:29:28.121Z,94264.42
2023-01-10T22:31:54.578Z,94264.89
2023-01-10T22:34:20.889Z,94238.48
2023-01-10T22:36:47.265Z,94267.07
2023-01-10T22:39:13.651Z,94269.25
2023-01-10T22:41:39.989Z,94269.64
2023-01-10T22:44:06.378Z,94269.92
2023-01-10T22:46:32.746Z,94273.86
2023-01-10T22:48:59.131Z,94270.58
2023-01-10T22:51:25.463Z,94270.86
2023-01-10T22:53:51.855Z,94274.98
2023-01-10T22:56:18.186Z,94276.27
2023-01-10T22:58:44.614Z,94281.42
2023-01-10T23:01:10.947Z,94285.44
2023-01-10T23:03:37.318Z,94288.80
2023-01-10T23:06:03.641Z,94285.44
2023-01-10T23:08:31.224Z,94292.66
2023-01-10T23:10:56.355Z,94285.55
2023-01-10T23:13:22.716Z,94288.12
2023-01-10T23:15:49.065Z,94285.08
2023-01-10T23:18:15.414Z,94284.61
2023-01-10T23:20:41.762Z,94291.37
2023-01-10T23:23:08.117Z,94290.31
2023-01-10T23:25:34.459Z,94293.42
2023-01-10T23:28:00.815Z,94290.35
2023-01-10T23:30:27.152Z,94293.19
2023-01-10T23:32:53.499Z,94294.48
2023-01-10T23:35:19.841Z,94298.95
2023-01-10T23:37:49.290Z,94293.66
2023-01-10T23:40:15.662Z,94297.67
2023-01-10T23:42:42.012Z,94303.95
2023-01-10T23:45:08.357Z,94295.56
2023-01-10T23:47:34.707Z,94301.66
2023-01-10T23:50:01.085Z,94300.05
2023-01-10T23:52:27.422Z,94300.63
2023-01-10T23:54:53.769Z,94299.70
2023-01-10T23:57:20.123Z,94301.45
2023-01-10T23:59:46.467Z,94297.13
